CYWG

Winnipeg / James Armstrong Richardson International Airport

ICAO Code CYWG
IATA Code YWG
Name Winnipeg / James Armstrong Richardson International Airport
Location Winnipeg, Manitoba, CA
Elevation 783 Feet / 238.7 Meters
Latitude 49.90999985
Longitude -97.23989868
METAR CYWG 090900Z 18023G29KT 15SM DRSN SCT008 OVC075 M05/M08 A2932 RMK SF4AC4 SLP948
Extra information Display Charts and CFS
Display NOTAMS
Runway Length Width Surface Elevation
07 4500 ft 200 ft ASP ft
13 8700 ft 200 ft ASP 783 ft
18 11000 ft 200 ft ASP 781 ft
25 4500 ft 200 ft ASP 775 ft
31 8700 ft 200 ft ASP 773 ft
36 11000 ft 200 ft ASP 777 ft